Glenville, New York
Current Conditions -  °F | °C
As of 1:55 PM on Thursday 23 Oct 2014 (Local Time) from KNY0 Reporting Station
Overcast Overcast  
Wind Chill: 45°   Ceiling: 2000
Heat Index: 47°   Visibility: 7mi
Dew Point: 45°   Wind: 6mph
Humidity: 91%   Direction: 10°N
Pressure: 29.83"   Gusts: NA
Location:  42.9294°N, 74.0527°W
Report Text: KNY0 231755Z AUTO 01005KT 7SM SCT012 BKN020 OVC090 09/07 A2983 RMK AO2 P0005 60048 T00860072 10087 20066
Loading
Personal Weather Stations






























Interactive Weather Map
Tropical Storm Tracking
New forecast layout! Learn more

10-Day Weather Forecast

Advertisements
Track Severe Weather on mobile